Time;durP1;ratioP1;P1;durP2;ratioP2;P2;SDS_P1;SDS_P2;PMS_P1;PMS_P2;Temp;Humidity;BMP_temperature;BMP_pressure;BME280_temperature;BME280_humidity;BME280_pressure;Samples;Min_cycle;Max_cycle;Signal;HPM_P1;HPM_P2
2022/05/13 00:02:43;;;;;;;4.22;2.10;;;17.30;99.90;;;;;;4961333;28;20046;-87
2022/05/13 00:05:12;;;;;;;4.35;2.20;;;17.30;99.90;;;;;;4975752;28;20083;-87
2022/05/13 00:11:18;;;;;;;3.85;2.30;;;17.20;99.90;;;;;;4904866;29;20049;-88
2022/05/13 00:13:47;;;;;;;4.72;2.13;;;17.30;99.90;;;;;;4979683;28;20048;-88
2022/05/13 00:16:18;;;;;;;5.07;1.98;;;17.30;99.90;;;;;;4981348;28;20033;-87
2022/05/13 00:18:43;;;;;;;3.45;1.80;;;17.30;99.90;;;;;;4985129;28;20037;-88
2022/05/13 00:21:15;;;;;;;5.10;1.95;;;17.30;99.90;;;;;;4982808;28;20027;-87
2022/05/13 00:23:43;;;;;;;;;;;17.30;99.90;;;;;;4986997;28;20038;-88
2022/05/13 00:26:11;;;;;;;4.30;2.22;;;17.30;99.90;;;;;;4981989;28;19914;-87
2022/05/13 00:28:37;;;;;;;4.43;2.13;;;17.30;99.90;;;;;;4997361;28;20077;-87
2022/05/13 00:31:08;;;;;;;3.45;1.80;;;17.20;99.90;;;;;;4992885;28;20034;-87
2022/05/13 00:33:51;;;;;;;;;;;;;;;;;;;;;
2022/05/13 00:38:52;;;;;;;4.65;2.30;;;17.20;99.90;;;;;;5034793;23;20099;-88
2022/05/13 00:41:46;;;;;;;3.88;2.17;;;17.20;99.90;;;;;;4996034;28;20037;-88
2022/05/13 00:44:26;;;;;;;4.53;2.40;;;17.30;99.90;;;;;;5013382;28;20057;-88
2022/05/13 00:46:52;;;;;;;3.93;2.07;;;17.30;99.90;;;;;;4994968;28;20034;-88
2022/05/13 00:49:18;;;;;;;3.50;1.95;;;17.50;99.90;;;;;;4999044;28;20276;-88
2022/05/13 00:51:48;;;;;;;4.38;2.40;;;17.40;99.90;;;;;;4999997;28;20061;-88
2022/05/13 00:58:17;;;;;;;;;;;;;;;;;;;;;
2022/05/13 01:04:22;;;;;;;5.07;2.25;;;17.20;99.90;;;;;;4987015;28;20522;-87
2022/05/13 01:06:54;;;;;;;4.30;2.22;;;17.20;99.90;;;;;;4991860;28;20034;-87
2022/05/13 01:10:16;;;;;;;4.13;2.10;;;17.20;99.90;;;;;;5011718;28;20412;-87
2022/05/13 01:12:50;;;;;;;5.97;2.03;;;17.20;99.90;;;;;;5005171;28;20026;-87
2022/05/13 01:15:42;;;;;;;4.00;2.05;;;17.20;99.90;;;;;;5011496;28;20026;-87
2022/05/13 01:18:10;;;;;;;3.67;2.08;;;17.20;99.90;;;;;;4992823;28;20022;-88
2022/05/13 01:20:48;;;;;;;7.10;2.50;;;17.10;99.90;;;;;;4986333;28;20026;-88
2022/05/13 01:23:30;;;;;;;4.95;2.25;;;17.30;99.90;;;;;;4994880;28;20025;-88
2022/05/13 01:26:25;;;;;;;4.18;2.40;;;17.20;99.90;;;;;;5009978;28;20033;-88
2022/05/13 01:29:08;;;;;;;4.68;2.10;;;17.10;99.90;;;;;;4948818;28;20515;-88
2022/05/13 01:31:45;;;;;;;4.35;2.05;;;17.20;99.90;;;;;;4933078;28;20073;-88
2022/05/13 01:34:13;;;;;;;3.78;2.20;;;17.20;99.90;;;;;;4932403;29;20420;-88
2022/05/13 01:36:46;;;;;;;4.65;2.30;;;17.10;99.90;;;;;;4932830;29;20078;-87
2022/05/13 01:39:22;;;;;;;4.68;2.38;;;17.20;99.90;;;;;;4943471;28;20038;-87
2022/05/13 01:41:48;;;;;;;4.60;2.50;;;17.10;99.90;;;;;;4992141;28;20121;-87
2022/05/13 01:44:22;;;;;;;3.92;2.33;;;17.00;99.90;;;;;;4991973;28;20394;-87
2022/05/13 01:46:48;;;;;;;5.10;2.63;;;17.10;99.90;;;;;;4986029;28;20042;-88
2022/05/13 01:49:13;;;;;;;5.45;2.58;;;17.00;99.90;;;;;;5018318;28;20497;-87
2022/05/13 01:51:50;;;;;;;6.10;2.45;;;17.00;99.90;;;;;;5000954;28;20029;-87
2022/05/13 01:54:16;;;;;;;5.00;2.70;;;17.00;99.90;;;;;;5000579;28;20058;-87
2022/05/13 01:56:51;;;;;;;4.35;2.60;;;17.00;99.90;;;;;;5004843;28;20021;-87
2022/05/13 01:59:29;;;;;;;5.78;2.63;;;17.00;99.90;;;;;;5000399;28;20030;-88
2022/05/13 02:01:57;;;;;;;6.95;2.38;;;17.00;99.90;;;;;;5018051;28;20486;-88
2022/05/13 02:04:54;;;;;;;;;;;;;;;;;;;;;
2022/05/13 02:10:34;;;;;;;4.55;2.35;;;16.90;99.90;;;;;;4959429;28;20040;-88
2022/05/13 02:13:25;;;;;;;4.97;2.38;;;16.70;99.90;;;;;;4999481;28;20038;-88
2022/05/13 02:16:18;;;;;;;5.18;2.15;;;16.50;99.90;;;;;;4983809;28;20038;-88
2022/05/13 02:18:53;;;;;;;3.75;1.98;;;16.40;99.90;;;;;;4994733;28;20108;-90
2022/05/13 02:21:52;;;;;;;3.60;1.83;;;16.40;99.90;;;;;;5000323;28;20034;-89
2022/05/13 02:25:19;;;;;;;7.30;1.60;;;16.30;99.90;;;;;;4997621;28;20109;-87
2022/05/13 02:31:48;;;;;;;4.35;1.85;;;16.20;99.90;;;;;;4906436;29;20560;-87
2022/05/13 02:34:14;;;;;;;5.38;2.05;;;16.40;99.90;;;;;;4946263;28;20106;-87
2022/05/13 02:36:42;;;;;;;2.70;1.30;;;16.20;99.90;;;;;;4980274;28;20054;-84
2022/05/13 02:39:33;;;;;;;4.25;1.52;;;16.40;99.90;;;;;;4980107;28;20057;-85
2022/05/13 02:42:04;;;;;;;3.95;2.00;;;16.20;99.90;;;;;;4956678;28;20054;-85
2022/05/13 02:44:39;;;;;;;4.00;1.77;;;16.20;99.90;;;;;;4974043;28;20023;-86
2022/05/13 02:47:04;;;;;;;4.50;2.00;;;16.10;99.90;;;;;;4972831;28;20049;-86
2022/05/13 02:49:30;;;;;;;3.65;1.90;;;16.20;99.90;;;;;;4958126;28;20116;-86
2022/05/13 02:51:56;;;;;;;3.35;1.83;;;16.20;99.90;;;;;;4962387;28;20022;-86
2022/05/13 02:54:32;;;;;;;3.92;1.77;;;16.20;99.90;;;;;;4959252;28;20018;-85
2022/05/13 02:57:08;;;;;;;4.03;1.70;;;16.20;99.90;;;;;;4956038;28;20479;-85
2022/05/13 02:59:35;;;;;;;3.35;1.55;;;16.30;99.90;;;;;;4956402;28;20078;-86
2022/05/13 03:02:01;;;;;;;3.38;1.40;;;16.20;99.90;;;;;;4974587;28;20034;-85
2022/05/13 03:04:27;;;;;;;4.55;1.75;;;16.30;99.90;;;;;;4973489;28;20030;-86
2022/05/13 03:06:53;;;;;;;3.95;1.55;;;16.20;99.90;;;;;;4973439;28;20023;-85
2022/05/13 03:09:19;;;;;;;5.00;1.75;;;16.40;99.90;;;;;;4955911;28;20122;-86
2022/05/13 03:11:45;;;;;;;4.45;1.90;;;16.50;99.90;;;;;;4955901;28;20130;-85
2022/05/13 03:14:27;;;;;;;2.92;1.20;;;16.40;99.90;;;;;;4955778;28;20026;-86
2022/05/13 03:16:59;;;;;;;3.13;1.40;;;16.30;99.90;;;;;;4949172;28;20049;-85
2022/05/13 03:19:33;;;;;;;;;;;16.30;99.90;;;;;;4955039;28;20019;-85
2022/05/13 03:21:59;;;;;;;3.63;1.80;;;16.30;99.90;;;;;;4955926;28;20425;-85
2022/05/13 03:24:25;;;;;;;4.65;1.60;;;16.30;99.90;;;;;;4972954;28;20125;-85
2022/05/13 03:26:54;;;;;;;3.20;1.80;;;16.50;99.90;;;;;;4957991;28;20122;-86
2022/05/13 03:29:20;;;;;;;3.75;1.88;;;16.30;99.90;;;;;;4974931;28;20038;-85
2022/05/13 03:32:12;;;;;;;2.88;1.50;;;16.40;99.90;;;;;;4974210;28;20526;-85
2022/05/13 03:34:43;;;;;;;5.22;1.80;;;16.30;99.90;;;;;;4949700;28;20047;-85
2022/05/13 03:37:09;;;;;;;3.58;1.70;;;16.30;99.90;;;;;;4972713;28;20114;-86
2022/05/13 03:39:46;;;;;;;4.80;2.00;;;16.30;99.90;;;;;;4973799;28;20032;-85
2022/05/13 03:42:12;;;;;;;4.40;1.98;;;16.30;99.90;;;;;;4973102;28;20042;-86
2022/05/13 03:44:41;;;;;;;4.00;1.70;;;16.30;99.90;;;;;;4977250;28;20119;-86
2022/05/13 03:47:10;;;;;;;4.63;1.80;;;16.60;99.90;;;;;;4970419;28;20034;-86
2022/05/13 03:49:38;;;;;;;3.22;1.60;;;16.30;99.90;;;;;;4956856;28;20023;-85
2022/05/13 03:52:06;;;;;;;4.68;2.15;;;16.40;99.90;;;;;;4971646;28;20022;-86
2022/05/13 03:54:32;;;;;;;3.97;1.80;;;16.40;99.90;;;;;;4949389;28;20023;-86
2022/05/13 03:57:03;;;;;;;4.22;1.83;;;16.50;99.90;;;;;;4971823;28;20026;-85
2022/05/13 03:59:29;;;;;;;3.78;1.92;;;16.40;99.90;;;;;;4955486;28;20031;-86
2022/05/13 04:01:58;;;;;;;6.57;2.33;;;16.30;99.90;;;;;;4954849;28;20502;-86
2022/05/13 04:10:08;;;;;;;4.57;2.20;;;16.30;99.90;;;;;;4971900;28;20061;-86
2022/05/13 04:18:03;;;;;;;3.00;1.83;;;16.40;99.90;;;;;;4973758;28;20902;-87
2022/05/13 04:20:32;;;;;;;4.55;1.80;;;16.40;99.90;;;;;;4956769;28;20435;-85
2022/05/13 04:22:58;;;;;;;3.83;1.98;;;16.40;99.90;;;;;;4955385;28;20903;-87
2022/05/13 04:25:24;;;;;;;4.95;1.75;;;16.60;99.90;;;;;;4971118;28;20539;-86
2022/05/13 04:27:50;;;;;;;8.77;1.90;;;16.40;99.90;;;;;;4975184;28;20018;-86
2022/05/13 04:30:17;;;;;;;3.38;1.65;;;16.40;99.90;;;;;;4954065;28;20034;-86
2022/05/13 04:32:59;;;;;;;5.13;1.90;;;16.40;99.90;;;;;;4952971;28;20027;-85
2022/05/13 04:35:28;;;;;;;4.43;2.30;;;16.10;99.90;;;;;;4955342;28;20039;-85
2022/05/13 04:37:56;;;;;;;4.00;1.95;;;16.50;99.90;;;;;;4953182;28;20029;-85
2022/05/13 04:40:25;;;;;;;4.43;2.00;;;16.50;99.90;;;;;;4956663;28;20038;-85
2022/05/13 04:43:12;;;;;;;4.53;1.90;;;16.40;99.90;;;;;;4976566;28;20054;-86
2022/05/13 04:45:46;;;;;;;4.22;1.80;;;16.50;99.90;;;;;;4953726;28;20084;-86
2022/05/13 04:48:18;;;;;;;4.60;1.95;;;16.60;99.90;;;;;;4953390;28;20022;-85
2022/05/13 04:50:53;;;;;;;3.58;1.95;;;16.70;99.90;;;;;;4968471;28;20039;-85
2022/05/13 04:53:25;;;;;;;3.42;1.85;;;16.50;99.90;;;;;;4955128;28;20093;-85
2022/05/13 04:56:08;;;;;;;5.53;1.70;;;16.60;99.90;;;;;;4954426;28;20087;-85
2022/05/13 04:58:35;;;;;;;6.57;2.10;;;16.60;99.90;;;;;;4945162;28;20042;-87
2022/05/13 05:01:12;;;;;;;4.95;1.90;;;16.60;99.90;;;;;;4953330;28;20479;-85
2022/05/13 05:03:48;;;;;;;4.10;1.70;;;16.60;99.90;;;;;;4953027;28;20444;-85
2022/05/13 05:06:16;;;;;;;3.45;1.90;;;16.50;99.90;;;;;;4972684;28;20027;-89
2022/05/13 05:08:43;;;;;;;4.47;1.90;;;16.50;99.90;;;;;;4958213;28;20031;-90
2022/05/13 05:11:13;;;;;;;4.18;1.83;;;16.50;99.90;;;;;;4961828;28;20078;-90
2022/05/13 05:13:52;;;;;;;3.20;1.73;;;16.60;99.90;;;;;;4953504;28;20034;-89
2022/05/13 05:16:22;;;;;;;4.45;2.15;;;16.50;99.90;;;;;;4962264;28;20023;-89
2022/05/13 05:18:48;;;;;;;3.47;1.60;;;16.50;99.90;;;;;;4959223;28;20118;-90
2022/05/13 05:21:13;;;;;;;3.55;1.95;;;16.50;99.90;;;;;;4961713;28;20054;-88
2022/05/13 05:23:42;;;;;;;4.50;2.00;;;16.50;99.90;;;;;;4958846;28;20034;-87
2022/05/13 05:26:08;;;;;;;4.53;1.33;;;16.40;99.90;;;;;;4972744;28;20041;-87
2022/05/13 05:28:34;;;;;;;4.10;1.63;;;16.40;99.90;;;;;;4976089;28;20023;-86
2022/05/13 05:31:02;;;;;;;3.88;2.15;;;16.40;99.90;;;;;;4964056;28;20038;-87
2022/05/13 05:33:29;;;;;;;5.97;2.00;;;16.40;99.90;;;;;;4961127;28;20096;-87
2022/05/13 05:35:55;;;;;;;4.45;1.80;;;16.50;99.90;;;;;;4961159;28;20030;-89
2022/05/13 05:38:20;;;;;;;3.78;1.90;;;16.50;99.90;;;;;;4958041;28;20184;-87
2022/05/13 05:40:46;;;;;;;3.75;1.85;;;16.50;99.90;;;;;;4961700;28;20031;-87
2022/05/13 05:43:16;;;;;;;3.92;1.98;;;16.60;99.90;;;;;;4962515;28;20035;-87
2022/05/13 05:45:45;;;;;;;3.40;1.67;;;16.70;99.90;;;;;;4963092;28;20030;-86
2022/05/13 05:48:13;;;;;;;6.70;2.75;;;17.00;99.90;;;;;;4955099;28;20031;-87
2022/05/13 05:50:38;;;;;;;4.43;2.20;;;16.90;99.90;;;;;;4958938;28;20398;-87
2022/05/13 05:53:04;;;;;;;3.65;1.70;;;17.10;99.90;;;;;;4952860;28;20035;-87
2022/05/13 05:58:17;;;;;;;3.35;1.65;;;16.80;99.90;;;;;;4974769;28;20038;-85
2022/05/13 06:00:46;;;;;;;4.57;1.60;;;16.90;99.90;;;;;;4958630;28;20113;-85
2022/05/13 06:03:12;;;;;;;5.57;1.75;;;16.90;99.90;;;;;;4955878;28;20022;-85
2022/05/13 06:05:38;;;;;;;4.35;1.30;;;16.80;99.90;;;;;;4957816;28;20045;-84
2022/05/13 06:08:05;;;;;;;3.03;1.50;;;16.80;99.90;;;;;;4960511;28;20046;-84
2022/05/13 06:10:31;;;;;;;4.80;1.40;;;16.80;99.90;;;;;;4971806;28;20042;-86
2022/05/13 06:12:57;;;;;;;7.70;1.50;;;16.90;99.90;;;;;;4950594;28;20058;-87
2022/05/13 06:15:24;;;;;;;3.15;1.42;;;16.90;99.90;;;;;;4968109;28;20054;-85
2022/05/13 06:17:52;;;;;;;4.28;1.45;;;16.90;99.90;;;;;;4951216;28;20027;-85
2022/05/13 06:20:22;;;;;;;3.83;1.40;;;16.90;99.90;;;;;;4974208;28;20023;-85
2022/05/13 06:22:48;;;;;;;2.85;1.35;;;16.90;99.90;;;;;;4965069;28;20019;-85
2022/05/13 06:25:16;;;;;;;2.60;1.20;;;16.90;99.90;;;;;;4974737;28;20042;-85
2022/05/13 06:27:44;;;;;;;6.22;1.65;;;16.90;99.90;;;;;;4959189;28;20038;-85
2022/05/13 06:30:15;;;;;;;2.55;1.05;;;16.80;99.90;;;;;;4984718;28;20128;-85
2022/05/13 06:32:41;;;;;;;3.35;1.10;;;16.90;99.90;;;;;;4961448;28;20109;-85
2022/05/13 06:35:08;;;;;;;3.65;0.95;;;17.00;99.90;;;;;;4964904;28;20037;-85
2022/05/13 06:37:33;;;;;;;2.35;1.10;;;17.00;99.90;;;;;;4963622;28;20082;-85
2022/05/13 06:39:59;;;;;;;2.88;1.20;;;17.10;99.90;;;;;;4956704;28;20023;-85
2022/05/13 06:42:25;;;;;;;2.90;1.10;;;17.20;99.90;;;;;;4974179;28;20023;-85
2022/05/13 06:44:50;;;;;;;2.33;0.85;;;17.20;99.90;;;;;;4973166;28;20398;-84
2022/05/13 06:47:16;;;;;;;1.92;0.93;;;17.30;99.90;;;;;;4974460;28;20031;-85
2022/05/13 06:49:42;;;;;;;2.85;1.13;;;17.50;99.90;;;;;;4954964;29;20396;-84
2022/05/13 06:52:13;;;;;;;5.43;1.45;;;17.40;99.90;;;;;;4955561;29;20598;-85
2022/05/13 06:54:39;;;;;;;1.77;0.93;;;17.30;99.90;;;;;;4958947;28;20046;-85
2022/05/13 06:57:05;;;;;;;3.80;1.30;;;17.30;99.90;;;;;;4981370;28;20030;-84
2022/05/13 06:59:31;;;;;;;2.10;1.00;;;17.30;99.90;;;;;;4982117;28;20027;-84
2022/05/13 07:01:57;;;;;;;2.25;1.00;;;17.30;99.90;;;;;;4982240;28;20038;-85
2022/05/13 07:04:23;;;;;;;2.78;0.85;;;17.30;99.90;;;;;;4962892;28;20029;-84
2022/05/13 07:06:48;;;;;;;2.15;0.80;;;17.30;99.90;;;;;;4961458;28;20468;-84
2022/05/13 07:09:14;;;;;;;1.92;1.10;;;17.30;99.90;;;;;;4961312;28;20279;-84
2022/05/13 07:11:40;;;;;;;2.83;1.20;;;17.20;99.90;;;;;;4954672;29;20034;-85
2022/05/13 07:14:05;;;;;;;2.00;0.98;;;17.10;99.90;;;;;;4954523;29;20527;-85
2022/05/13 07:16:34;;;;;;;4.03;1.05;;;17.00;99.90;;;;;;4967657;28;20029;-84
2022/05/13 07:19:00;;;;;;;3.00;1.30;;;17.00;99.90;;;;;;4953929;29;20030;-84
2022/05/13 07:21:25;;;;;;;2.53;1.00;;;16.90;99.90;;;;;;4942022;29;20047;-85
2022/05/13 07:23:51;;;;;;;2.55;1.02;;;16.80;99.90;;;;;;4937512;29;20023;-87
2022/05/13 07:26:17;;;;;;;1.98;0.90;;;16.80;99.90;;;;;;4945988;28;20417;-86
2022/05/13 07:28:43;;;;;;;3.38;1.33;;;16.80;99.90;;;;;;4956606;28;20471;-86
2022/05/13 07:31:08;;;;;;;1.98;0.88;;;16.80;99.90;;;;;;4961424;28;20634;-86
2022/05/13 07:33:35;;;;;;;3.20;1.20;;;16.80;99.90;;;;;;4955960;28;20027;-87
2022/05/13 07:36:02;;;;;;;3.67;1.00;;;16.70;99.90;;;;;;4956410;28;20043;-86
2022/05/13 07:38:30;;;;;;;2.60;0.90;;;16.80;99.90;;;;;;4956661;28;20105;-86
2022/05/13 07:43:40;;;;;;;1.80;0.90;;;16.90;99.90;;;;;;4973407;28;20152;-86
2022/05/13 07:46:07;;;;;;;3.63;0.90;;;16.90;99.90;;;;;;4955567;28;20027;-87
2022/05/13 07:48:33;;;;;;;2.63;1.00;;;16.90;99.90;;;;;;4959289;28;20024;-86
2022/05/13 07:50:59;;;;;;;4.70;1.58;;;16.90;99.90;;;;;;4954384;29;20031;-86
2022/05/13 07:53:24;;;;;;;2.70;0.85;;;16.80;99.90;;;;;;4955136;29;20102;-89
2022/05/13 07:55:50;;;;;;;2.65;1.10;;;16.80;99.90;;;;;;4954954;29;20106;-89
2022/05/13 07:58:16;;;;;;;2.90;1.10;;;16.80;99.90;;;;;;4954538;28;20035;-89
2022/05/13 08:00:43;;;;;;;2.42;1.00;;;16.80;99.90;;;;;;4955126;29;20079;-89
2022/05/13 08:03:12;;;;;;;2.25;1.00;;;16.80;99.90;;;;;;4955108;29;20031;-89
2022/05/13 08:05:48;;;;;;;2.72;1.33;;;16.80;99.90;;;;;;4945434;29;20080;-89
2022/05/13 08:08:21;;;;;;;4.13;1.13;;;16.90;99.90;;;;;;4953104;28;20045;-89
2022/05/13 08:10:52;;;;;;;3.40;1.23;;;17.10;99.90;;;;;;4975561;28;20034;-89
2022/05/13 08:13:21;;;;;;;3.30;1.30;;;17.30;99.90;;;;;;4957582;28;20038;-89
2022/05/13 08:15:48;;;;;;;2.58;1.02;;;17.30;99.90;;;;;;4957018;28;20027;-88
2022/05/13 08:18:15;;;;;;;3.55;1.30;;;17.50;99.90;;;;;;4956975;28;20030;-91
2022/05/13 08:20:42;;;;;;;2.40;1.30;;;17.90;99.90;;;;;;4957996;28;20484;-90
2022/05/13 08:23:09;;;;;;;3.38;1.02;;;18.20;99.90;;;;;;4958556;28;20041;-90
2022/05/13 08:25:35;;;;;;;3.00;1.05;;;18.30;99.90;;;;;;4958277;28;20027;-89
2022/05/13 08:28:01;;;;;;;2.55;0.80;;;18.50;99.90;;;;;;4941396;29;20118;-89
2022/05/13 08:30:27;;;;;;;4.20;0.90;;;18.50;99.90;;;;;;4938679;29;20086;-89
2022/05/13 08:32:57;;;;;;;3.78;1.13;;;18.70;99.90;;;;;;4938172;29;20511;-89
2022/05/13 08:35:23;;;;;;;3.28;0.98;;;18.80;99.90;;;;;;4938183;29;20047;-89
2022/05/13 08:37:52;;;;;;;2.53;0.88;;;18.80;99.90;;;;;;4938725;29;20115;-90
2022/05/13 08:40:50;;;;;;;2.67;0.80;;;19.00;99.90;;;;;;4938843;29;20418;-89
2022/05/13 08:43:34;;;;;;;4.38;0.70;;;19.00;99.90;;;;;;4938659;29;20031;-90
2022/05/13 08:46:06;;;;;;;2.70;0.80;;;19.00;99.90;;;;;;4950505;28;20129;-89
2022/05/13 08:48:42;;;;;;;1.50;0.55;;;19.30;99.90;;;;;;4957135;28;20118;-89
2022/05/13 08:51:29;;;;;;;1.95;0.80;;;19.40;99.90;;;;;;4957592;28;20037;-88
2022/05/13 08:54:15;;;;;;;5.90;0.70;;;19.30;99.90;;;;;;4978566;28;20034;-88
2022/05/13 08:56:45;;;;;;;1.92;0.55;;;19.30;99.90;;;;;;4941050;28;20753;-88
2022/05/13 08:59:49;;;;;;;1.75;0.88;;;19.30;99.90;;;;;;4956429;28;20038;-87
2022/05/13 09:02:28;;;;;;;3.97;0.80;;;19.30;99.90;;;;;;4961289;28;20034;-88
2022/05/13 09:05:15;;;;;;;3.28;0.70;;;19.50;99.90;;;;;;4957798;28;20026;-87
2022/05/13 09:07:46;;;;;;;3.10;0.70;;;19.80;99.90;;;;;;4955150;28;20126;-88
2022/05/13 09:10:13;;;;;;;5.27;0.70;;;19.90;99.90;;;;;;4973816;28;20652;-89
2022/05/13 09:13:07;;;;;;;2.53;0.50;;;20.10;99.90;;;;;;4969749;28;20270;-88
2022/05/13 09:15:42;;;;;;;2.10;0.63;;;20.40;99.90;;;;;;4945199;28;20062;-87
2022/05/13 09:18:16;;;;;;;1.42;0.40;;;20.50;99.90;;;;;;4972766;28;20026;-88
2022/05/13 09:21:09;;;;;;;1.85;0.80;;;20.80;99.90;;;;;;4956383;28;20085;-88
2022/05/13 09:23:35;;;;;;;5.25;0.80;;;20.90;99.90;;;;;;4966581;28;20369;-88
2022/05/13 09:26:06;;;;;;;3.20;0.80;;;21.20;99.90;;;;;;4958420;28;20114;-89
2022/05/13 09:28:35;;;;;;;1.47;0.50;;;21.20;99.90;;;;;;4958770;28;20057;-87
2022/05/13 09:31:16;;;;;;;1.80;0.47;;;21.40;99.90;;;;;;4957864;28;20039;-89
2022/05/13 09:33:46;;;;;;;3.90;0.75;;;21.50;99.90;;;;;;4942862;28;20031;-88
2022/05/13 09:36:21;;;;;;;1.07;0.40;;;21.80;99.90;;;;;;4977552;28;20026;-89
2022/05/13 09:38:56;;;;;;;2.30;0.60;;;21.80;99.90;;;;;;4992441;28;20790;-88
2022/05/13 09:41:35;;;;;;;1.73;0.60;;;21.50;99.90;;;;;;4959626;28;20125;-89
2022/05/13 09:44:13;;;;;;;5.10;1.10;;;21.40;99.90;;;;;;4960966;28;20470;-89
2022/05/13 09:46:45;;;;;;;2.38;0.40;;;20.90;99.90;;;;;;4960277;28;20031;-88
2022/05/13 09:49:26;;;;;;;3.63;0.95;;;20.90;99.90;;;;;;4956412;28;20030;-88
2022/05/13 09:51:58;;;;;;;3.25;0.60;;;20.60;99.90;;;;;;4973148;28;20042;-88
2022/05/13 09:54:31;;;;;;;2.63;0.80;;;20.60;99.90;;;;;;4977557;28;20038;-88
2022/05/13 09:57:07;;;;;;;4.18;0.47;;;20.40;99.90;;;;;;4959482;28;20027;-88
2022/05/13 09:59:45;;;;;;;1.52;0.85;;;20.30;99.90;;;;;;4971061;28;20070;-88
2022/05/13 10:02:29;;;;;;;2.45;0.52;;;20.20;99.90;;;;;;4958735;29;20031;-89
2022/05/13 10:05:11;;;;;;;1.15;0.40;;;20.00;99.90;;;;;;4942053;29;20035;-89
2022/05/13 10:07:47;;;;;;;2.55;0.70;;;20.10;99.90;;;;;;4960584;28;20027;-88
2022/05/13 10:16:27;;;;;;;3.03;0.73;;;20.00;99.90;;;;;;4964781;29;20181;-90
2022/05/13 10:19:37;;;;;;;1.60;0.60;;;20.00;99.90;;;;;;4955299;29;20023;-90
2022/05/13 10:22:21;;;;;;;3.28;0.57;;;19.80;99.90;;;;;;4926920;29;20062;-89
2022/05/13 10:25:10;;;;;;;2.05;0.50;;;19.90;99.90;;;;;;4962529;28;20047;-88
2022/05/13 10:27:39;;;;;;;2.63;0.38;;;19.90;99.90;;;;;;4964992;28;20100;-88
2022/05/13 10:30:10;;;;;;;5.97;0.77;;;20.00;99.90;;;;;;4958424;28;20069;-88
2022/05/13 10:33:06;;;;;;;2.20;0.70;;;19.90;99.90;;;;;;4954779;29;20046;-88
2022/05/13 10:35:57;;;;;;;1.13;0.47;;;19.80;99.90;;;;;;4942698;28;20499;-88
2022/05/13 10:38:41;;;;;;;0.63;0.35;;;19.80;99.90;;;;;;4958702;28;20023;-91
2022/05/13 10:41:40;;;;;;;1.52;0.50;;;19.80;99.90;;;;;;4959187;28;20027;-90
2022/05/13 10:44:19;;;;;;;1.65;0.60;;;19.90;99.90;;;;;;4919690;28;20115;-89
2022/05/13 10:46:54;;;;;;;1.92;0.40;;;19.80;99.90;;;;;;4945335;28;20030;-90
2022/05/13 10:49:33;;;;;;;2.28;0.57;;;19.80;99.90;;;;;;4959053;28;20093;-90
2022/05/13 10:52:08;;;;;;;1.20;0.43;;;19.80;99.90;;;;;;4958967;28;20031;-90
2022/05/13 10:54:55;;;;;;;1.95;0.63;;;19.80;99.90;;;;;;4975079;28;20026;-91
2022/05/13 10:57:28;;;;;;;2.80;0.73;;;19.80;99.90;;;;;;4974800;28;20110;-89
2022/05/13 11:00:38;;;;;;;1.83;0.73;;;19.80;99.90;;;;;;4959312;28;20027;-90
2022/05/13 11:03:16;;;;;;;1.50;0.50;;;19.60;99.90;;;;;;4863428;29;20084;-90
2022/05/13 11:05:55;;;;;;;2.53;0.60;;;19.50;99.90;;;;;;4879185;29;20033;-90
2022/05/13 11:08:49;;;;;;;2.55;0.68;;;19.40;99.90;;;;;;4912156;29;20372;-90
2022/05/13 11:11:45;;;;;;;2.33;0.63;;;19.30;99.90;;;;;;4939797;29;20118;-90
2022/05/13 11:14:55;;;;;;;1.38;0.60;;;19.40;99.90;;;;;;4957376;28;20031;-90
2022/05/13 11:17:42;;;;;;;1.48;0.60;;;19.40;99.90;;;;;;4921119;28;20057;-90
2022/05/13 11:20:33;;;;;;;3.42;0.55;;;19.60;99.90;;;;;;4954117;28;20061;-90
2022/05/13 11:23:08;;;;;;;2.83;0.80;;;19.70;99.90;;;;;;4958396;28;20019;-90
2022/05/13 11:26:19;;;;;;;1.45;0.55;;;19.90;99.90;;;;;;4962729;28;20050;-91
2022/05/13 11:29:15;;;;;;;2.15;0.70;;;20.00;99.90;;;;;;4926861;28;20038;-91
2022/05/13 11:32:21;;;;;;;3.97;0.73;;;20.00;99.90;;;;;;4954595;28;20050;-89
2022/05/13 11:35:20;;;;;;;2.25;0.70;;;20.20;99.90;;;;;;4967830;28;20026;-88
2022/05/13 11:37:55;;;;;;;2.90;0.70;;;20.70;99.90;;;;;;4955249;28;20031;-88
2022/05/13 11:40:38;;;;;;;2.15;0.85;;;20.60;99.90;;;;;;4942120;28;20059;-90
2022/05/13 11:43:43;;;;;;;3.20;0.68;;;20.70;99.90;;;;;;4954124;28;20491;-89
2022/05/13 11:46:39;;;;;;;3.13;0.70;;;20.80;99.90;;;;;;4977490;28;20022;-88
2022/05/13 11:49:26;;;;;;;1.15;0.55;;;20.80;99.90;;;;;;4973920;28;20029;-89
2022/05/13 11:52:02;;;;;;;1.60;0.80;;;20.80;99.90;;;;;;4951675;28;20039;-88
2022/05/13 11:54:34;;;;;;;2.55;1.13;;;20.80;99.90;;;;;;4975349;28;20030;-89
2022/05/13 11:57:27;;;;;;;3.80;0.70;;;21.00;99.90;;;;;;4961961;28;20095;-88
2022/05/13 12:00:24;;;;;;;1.23;0.60;;;20.80;99.90;;;;;;4958309;28;20023;-91
2022/05/13 12:03:12;;;;;;;1.70;0.70;;;20.90;99.90;;;;;;4940329;28;20042;-89
2022/05/13 12:05:55;;;;;;;2.38;1.00;;;20.70;99.90;;;;;;4947716;28;20057;-88
2022/05/13 12:08:30;;;;;;;1.83;0.63;;;20.80;99.90;;;;;;4973334;28;20038;-89
2022/05/13 12:11:08;;;;;;;2.65;0.70;;;20.90;99.90;;;;;;4958455;28;20030;-89
2022/05/13 12:13:50;;;;;;;2.20;0.77;;;21.00;99.90;;;;;;4946398;29;20027;-90
2022/05/13 12:16:54;;;;;;;2.95;0.88;;;21.20;99.90;;;;;;4938006;29;20035;-89
2022/05/13 12:19:50;;;;;;;3.05;1.00;;;21.80;99.90;;;;;;4958272;28;20058;-89
2022/05/13 12:22:41;;;;;;;2.70;0.90;;;21.90;99.90;;;;;;4955735;28;20050;-90
2022/05/13 12:25:29;;;;;;;2.65;0.90;;;21.80;99.90;;;;;;4969677;28;20046;-91
2022/05/13 12:28:12;;;;;;;2.08;0.82;;;21.70;99.90;;;;;;4937342;28;20071;-89
2022/05/13 12:31:41;;;;;;;2.92;0.70;;;21.50;99.90;;;;;;4954291;28;20038;-90
2022/05/13 12:40:07;;;;;;;2.40;0.70;;;22.00;99.90;;;;;;4951599;29;20042;-86
2022/05/13 12:42:46;;;;;;;4.43;1.27;;;21.80;99.90;;;;;;4951994;29;20534;-86
2022/05/13 12:45:18;;;;;;;3.28;0.68;;;21.90;99.90;;;;;;4958217;28;20042;-86
2022/05/13 12:48:14;;;;;;;2.88;0.77;;;21.90;99.90;;;;;;4955744;28;20035;-87
2022/05/13 12:50:49;;;;;;;3.13;0.95;;;21.70;99.90;;;;;;4955912;28;20037;-87
2022/05/13 12:53:30;;;;;;;1.35;0.77;;;21.80;99.90;;;;;;4972915;28;20051;-86
2022/05/13 12:56:19;;;;;;;2.37;0.87;;;21.90;99.90;;;;;;4942248;28;20223;-86
2022/05/13 12:58:52;;;;;;;2.00;0.80;;;22.20;99.90;;;;;;4959366;28;20035;-86
2022/05/13 13:01:18;;;;;;;3.25;0.80;;;21.80;99.90;;;;;;4975701;28;20027;-89
2022/05/13 13:03:55;;;;;;;3.22;0.75;;;22.10;99.90;;;;;;4957574;28;20027;-89
2022/05/13 13:06:57;;;;;;;3.15;0.82;;;22.60;99.60;;;;;;4974948;28;20059;-90
2022/05/13 13:09:47;;;;;;;1.52;0.70;;;23.50;99.10;;;;;;4951633;29;20097;-89
2022/05/13 13:12:36;;;;;;;1.17;0.60;;;24.30;97.00;;;;;;4938121;29;20031;-90
2022/05/13 13:15:13;;;;;;;2.25;0.70;;;24.70;97.00;;;;;;4955783;28;20117;-89
2022/05/13 13:18:20;;;;;;;1.67;0.80;;;24.70;97.40;;;;;;4938373;29;20023;-89
2022/05/13 13:21:15;;;;;;;1.58;0.70;;;24.40;97.40;;;;;;4915526;29;20032;-89
2022/05/13 13:24:05;;;;;;;1.77;0.60;;;24.30;95.20;;;;;;4894195;29;20064;-91
2022/05/13 13:26:36;;;;;;;1.52;0.60;;;24.70;94.80;;;;;;4944098;28;20039;-89
2022/05/13 13:29:08;;;;;;;1.70;0.45;;;25.50;95.10;;;;;;4974688;28;20037;-90
2022/05/13 13:31:47;;;;;;;1.42;0.63;;;26.00;91.90;;;;;;4975389;28;20118;-91
2022/05/13 13:34:29;;;;;;;1.13;0.47;;;26.30;92.80;;;;;;4957399;28;20039;-89
2022/05/13 13:37:04;;;;;;;1.88;0.60;;;26.60;92.40;;;;;;4973303;28;20022;-91
2022/05/13 13:39:36;;;;;;;2.45;0.40;;;27.00;90.40;;;;;;4957864;28;20034;-89
2022/05/13 13:42:10;;;;;;;1.17;0.40;;;27.30;87.20;;;;;;4953046;28;20085;-89
2022/05/13 13:44:39;;;;;;;1.63;0.50;;;27.50;90.30;;;;;;4941159;29;20035;-88
2022/05/13 13:47:10;;;;;;;1.50;0.50;;;27.70;86.70;;;;;;4968218;28;20102;-89
2022/05/13 13:49:38;;;;;;;1.48;0.45;;;28.10;86.80;;;;;;4952578;28;20038;-90
2022/05/13 13:52:26;;;;;;;1.20;0.28;;;28.10;84.00;;;;;;4960294;28;20030;-89
2022/05/13 13:55:05;;;;;;;1.63;0.65;;;27.00;81.00;;;;;;4976397;28;20567;-89
2022/05/13 13:57:58;;;;;;;1.55;0.63;;;26.80;81.50;;;;;;4959313;28;20033;-89
2022/05/13 14:00:33;;;;;;;1.42;0.50;;;27.00;85.20;;;;;;4940850;29;20110;-89
2022/05/13 14:03:09;;;;;;;0.85;0.40;;;27.00;80.80;;;;;;4940977;29;20039;-89
2022/05/13 14:05:37;;;;;;;1.30;0.50;;;27.50;82.80;;;;;;4941764;28;20024;-89
2022/05/13 14:08:05;;;;;;;2.58;0.50;;;27.30;77.40;;;;;;4959686;28;20027;-89
2022/05/13 14:10:55;;;;;;;0.90;0.40;;;27.20;78.80;;;;;;4960542;28;20027;-89
2022/05/13 14:13:27;;;;;;;1.80;0.40;;;27.40;76.80;;;;;;4959928;28;20023;-89
2022/05/13 14:16:26;;;;;;;2.00;0.50;;;27.40;76.40;;;;;;4956933;28;20023;-89
2022/05/13 14:19:16;;;;;;;2.05;0.47;;;27.30;76.50;;;;;;4874799;29;20050;-90
2022/05/13 14:21:56;;;;;;;1.45;0.50;;;27.50;78.20;;;;;;4906166;28;20522;-90
2022/05/13 14:24:35;;;;;;;2.63;0.60;;;27.80;79.50;;;;;;4959535;28;20101;-88